Huvudsida
METAR-TAF:

METAR-TAF

Flygplatser :

Rasht Airport

Rasht, Iran

latitud: 37-12N, longitud: 049-38E, höjd: -7 m

Aktuellt väderrapport

Denna rapport gjordes för 28 minuter sedan, klockan 04:30 UTC
Vind 4 kt från syd/sydost
Temperatur 10°C
Fuktighet 87%
Tryck 1024 hPa
Sikt: 6000 m
Få moln på en höjd av 1000 ft, Cumulonimbus.
Brutna moln på en höjd av 1500 ft
Mulet på en höjd av 6000 ft

METAR: OIGG 200430Z 15004KT 6000 FEW010CB BKN015 OVC060 10/08 Q1024

Tid: 08:28 (04:58 UTC)


TAF: saknas

Aktuella väderrapporter och prognoser från 4000 flygplatser (METAR- och TAF-rapporter).

De tillgängliga stationerna syns som gula och röda prickar på kartan.

För musen över prickarna för att se namnen på stationerna.

Klicka sedan för att få väderrapporter och prognoser.

För att ändra kartan: Klicka på de gröna knapparna med ett svart kors på för att zooma in; den gröna knappen med ett streck på för att zooma ut; eller på de gröna pilarna för angränsande kartor.


METAR-TAF: